createdAt,value
2017-12-08T00:00:04.705Z,99.11
2017-12-08T00:05:03.029Z,99.58
2017-12-08T00:10:03.543Z,99.99
2017-12-08T00:15:03.156Z,99.99
2017-12-08T00:20:03.716Z,99.99
2017-12-08T00:25:03.193Z,99.99
2017-12-08T00:30:02.827Z,99.99
2017-12-08T00:35:03.240Z,99.99
2017-12-08T00:40:02.811Z,99.99
2017-12-08T00:45:03.276Z,99.99
2017-12-08T00:50:03.738Z,99.99
2017-12-08T00:55:03.317Z,99.99
2017-12-08T01:00:02.882Z,99.99
2017-12-08T01:05:03.721Z,99.99
2017-12-08T01:10:03.276Z,99.99
2017-12-08T01:15:02.739Z,99.99
2017-12-08T01:20:03.233Z,99.99
2017-12-08T01:25:02.898Z,99.99
2017-12-08T01:30:03.380Z,99.99
2017-12-08T01:35:02.969Z,99.99
2017-12-08T01:40:03.541Z,99.99
2017-12-08T01:45:02.922Z,99.99
2017-12-08T01:50:03.446Z,99.99
2017-12-08T01:55:03.058Z,99.99
2017-12-08T02:00:03.672Z,99.99
2017-12-08T02:05:03.251Z,99.99
2017-12-08T02:10:02.952Z,99.99
2017-12-08T02:15:03.549Z,99.99
2017-12-08T02:20:03.204Z,99.99
2017-12-08T02:25:02.808Z,99.99
2017-12-08T02:30:03.685Z,99.99
2017-12-08T02:35:03.166Z,99.99
2017-12-08T02:40:03.679Z,99.99
2017-12-08T02:45:03.134Z,99.99
2017-12-08T02:50:03.762Z,99.99
2017-12-08T02:55:03.249Z,99.99
2017-12-08T03:00:02.745Z,99.99
2017-12-08T03:05:03.249Z,99.99
2017-12-08T03:10:02.766Z,99.99
2017-12-08T03:15:03.182Z,99.99
2017-12-08T03:20:03.675Z,99.99
2017-12-08T03:25:03.313Z,99.99
2017-12-08T03:30:03.714Z,99.99
2017-12-08T03:35:03.192Z,99.99
2017-12-08T03:40:03.671Z,99.99
2017-12-08T03:45:03.311Z,99.99
2017-12-08T03:50:02.883Z,99.99
2017-12-08T03:55:03.354Z,99.99
2017-12-08T04:00:02.784Z,99.99
2017-12-08T04:05:03.398Z,99.99
2017-12-08T04:10:02.877Z,99.99
2017-12-08T04:15:03.447Z,99.99
2017-12-08T04:20:02.833Z,99.99
2017-12-08T04:25:03.424Z,99.99
2017-12-08T04:30:02.932Z,99.99
2017-12-08T04:35:03.656Z,99.99
2017-12-08T04:40:03.135Z,99.99
2017-12-08T04:45:03.642Z,99.99
2017-12-08T04:50:03.233Z,99.99
2017-12-08T04:55:03.686Z,99.99
2017-12-08T05:00:03.119Z,99.99
2017-12-08T05:05:02.768Z,99.99
2017-12-08T05:10:03.271Z,99.99
2017-12-08T05:15:02.905Z,99.99
2017-12-08T05:20:03.369Z,99.99
2017-12-08T05:25:02.899Z,99.99
2017-12-08T05:30:03.566Z,99.99
2017-12-08T05:35:02.996Z,99.99
2017-12-08T05:40:03.527Z,99.99
2017-12-08T05:45:03.054Z,99.99
2017-12-08T05:50:03.595Z,99.99
2017-12-08T05:55:03.048Z,99.99
2017-12-08T06:00:03.657Z,99.99
2017-12-08T06:05:03.150Z,99.99
2017-12-08T06:10:03.689Z,99.99
2017-12-08T06:15:03.316Z,99.99
2017-12-08T06:20:02.862Z,99.99
2017-12-08T06:25:03.355Z,99.99
2017-12-08T06:30:02.945Z,99.99
2017-12-08T06:35:03.409Z,99.99
2017-12-08T06:40:02.911Z,99.99
2017-12-08T06:45:03.532Z,99.99
2017-12-08T06:50:03.055Z,99.99
2017-12-08T06:55:03.656Z,99.99
2017-12-08T07:00:03.260Z,99.99
2017-12-08T07:05:03.846Z,99.99
2017-12-08T07:10:03.358Z,99.99
2017-12-08T07:15:02.834Z,99.99
2017-12-08T07:20:03.445Z,99.99
2017-12-08T07:25:03.014Z,99.99
2017-12-08T07:30:03.599Z,99.99
2017-12-08T07:35:03.225Z,99.99
2017-12-08T07:40:02.851Z,99.99
2017-12-08T07:45:03.483Z,99.99
2017-12-08T07:50:03.063Z,99.99
2017-12-08T07:55:03.541Z,99.99
2017-12-08T08:00:02.985Z,99.99
2017-12-08T08:05:03.575Z,99.99
2017-12-08T08:10:03.205Z,99.99
2017-12-08T08:15:03.761Z,99.99
2017-12-08T08:20:03.508Z,99.99
2017-12-08T08:25:03.155Z,99.99
2017-12-08T08:30:04.044Z,99.99
2017-12-08T08:35:03.464Z,99.99
2017-12-08T08:40:02.950Z,99.99
2017-12-08T08:45:03.566Z,99.99
2017-12-08T08:50:03.075Z,99.99
2017-12-08T08:55:03.540Z,99.99
2017-12-08T09:00:02.985Z,99.99
2017-12-08T09:05:03.422Z,99.99
2017-12-08T09:10:03.124Z,99.99
2017-12-08T09:15:03.639Z,99.99
2017-12-08T09:20:03.124Z,99.99
2017-12-08T09:25:03.517Z,99.99
2017-12-08T09:30:03.041Z,99.99
2017-12-08T09:35:03.700Z,99.99
2017-12-08T09:40:03.334Z,99.99
2017-12-08T09:45:02.783Z,99.99
2017-12-08T09:50:03.170Z,99.99
2017-12-08T09:55:03.426Z,99.99
2017-12-08T10:00:03.116Z,99.99
2017-12-08T10:05:03.513Z,99.99
2017-12-08T10:10:03.168Z,99.99
2017-12-08T10:15:03.670Z,99.99
2017-12-08T10:20:03.084Z,99.99
2017-12-08T10:25:03.533Z,99.99
2017-12-08T10:30:02.964Z,99.99
2017-12-08T10:35:03.395Z,99.99
2017-12-08T10:40:02.914Z,99.99
2017-12-08T10:45:03.329Z,99.99
2017-12-08T10:50:02.768Z,99.99
2017-12-08T10:55:03.173Z,99.99
2017-12-08T11:00:03.601Z,99.99
2017-12-08T11:05:03.194Z,99.99
2017-12-08T11:10:02.786Z,99.99
2017-12-08T11:15:03.334Z,99.99
2017-12-08T11:20:02.952Z,99.99
2017-12-08T11:25:03.635Z,99.99
2017-12-08T11:30:03.078Z,99.99
2017-12-08T11:35:03.475Z,99.99
2017-12-08T11:40:03.023Z,99.99
2017-12-08T11:45:03.661Z,99.99
2017-12-08T11:50:03.153Z,99.99
2017-12-08T11:55:03.772Z,99.99
2017-12-08T12:00:03.208Z,99.99
2017-12-08T12:05:02.775Z,99.99
2017-12-08T12:10:03.414Z,99.99
2017-12-08T12:15:02.965Z,99.99
2017-12-08T12:20:03.433Z,99.99
2017-12-08T12:25:02.890Z,99.99
2017-12-08T12:30:03.339Z,99.99
2017-12-08T12:35:02.778Z,99.99
2017-12-08T12:40:03.570Z,99.99
2017-12-08T12:45:03.099Z,99.99
2017-12-08T12:50:03.584Z,99.99
2017-12-08T12:55:03.029Z,99.99
2017-12-08T13:00:03.589Z,99.99
2017-12-08T13:05:03.184Z,99.99
2017-12-08T13:10:03.784Z,99.99
2017-12-08T13:15:03.330Z,99.99
2017-12-08T13:20:02.905Z,99.99
2017-12-08T13:25:03.380Z,99.99
2017-12-08T13:30:02.829Z,99.99
2017-12-08T13:35:03.256Z,99.99
2017-12-08T13:40:02.843Z,99.99
2017-12-08T13:45:03.291Z,99.99
2017-12-08T13:50:03.735Z,99.99
2017-12-08T13:55:03.181Z,99.99
2017-12-08T14:00:03.763Z,99.99
2017-12-08T14:05:03.418Z,99.99
2017-12-08T14:10:03.339Z,99.99
2017-12-08T14:15:02.794Z,99.99
2017-12-08T14:20:03.335Z,99.99
2017-12-08T14:25:03.691Z,99.99
2017-12-08T14:30:03.292Z,99.99
2017-12-08T14:35:02.969Z,99.99
2017-12-08T14:40:03.643Z,99.99
2017-12-08T14:45:03.117Z,99.99
2017-12-08T14:50:03.633Z,99.99
2017-12-08T14:55:03.174Z,99.99
2017-12-08T15:00:03.727Z,99.99
2017-12-08T15:05:03.271Z,99.99
2017-12-08T15:10:02.958Z,99.99
2017-12-08T15:15:03.543Z,99.99
2017-12-08T15:20:03.122Z,99.99
2017-12-08T15:25:03.755Z,99.99
2017-12-08T15:30:03.210Z,99.99
2017-12-08T15:35:03.666Z,99.99
2017-12-08T15:40:03.331Z,99.99
2017-12-08T15:45:03.168Z,99.99
2017-12-08T15:50:03.574Z,99.99
2017-12-08T15:55:03.089Z,99.99
2017-12-08T16:00:03.722Z,99.99
2017-12-08T16:05:03.346Z,99.9
2017-12-08T16:10:02.888Z,99.9
2017-12-08T16:15:03.376Z,99.99
2017-12-08T16:20:02.834Z,99.99
2017-12-08T16:25:03.410Z,99.99
2017-12-08T16:30:02.869Z,99.99
2017-12-08T16:35:03.492Z,99.99
2017-12-08T16:40:03.100Z,99.99
2017-12-08T16:45:03.603Z,99.99
2017-12-08T16:55:03.715Z,99.99
2017-12-08T17:00:03.235Z,99.99
2017-12-08T17:05:02.824Z,99.99
2017-12-08T17:10:03.447Z,99.99
2017-12-08T17:15:03.097Z,99.99
2017-12-08T17:20:03.585Z,99.99
2017-12-08T17:25:03.035Z,99.99
2017-12-08T17:30:03.512Z,99.99
2017-12-08T17:35:03.028Z,99.99
2017-12-08T17:40:03.667Z,99.99
2017-12-08T17:45:03.119Z,99.99
2017-12-08T17:50:03.759Z,99.99
2017-12-08T17:55:03.346Z,99.99
2017-12-08T18:00:02.941Z,99.99
2017-12-08T18:05:03.541Z,99.99
2017-12-08T18:10:03.186Z,99.99
2017-12-08T18:15:03.615Z,99.99
2017-12-08T18:20:03.217Z,99.99
2017-12-08T18:25:03.667Z,99.99
2017-12-08T18:30:03.220Z,99.99
2017-12-08T18:35:02.843Z,99.99
2017-12-08T18:40:03.293Z,99.99
2017-12-08T18:45:03.747Z,99.99
2017-12-08T18:50:03.179Z,99.99
2017-12-08T18:55:03.589Z,99.99
2017-12-08T19:00:02.969Z,99.99
2017-12-08T19:05:03.588Z,99.99
2017-12-08T19:10:03.042Z,99.47
2017-12-08T19:15:03.510Z,97.86
2017-12-08T19:20:02.915Z,95.4
2017-12-08T19:25:03.533Z,94.74
2017-12-08T19:30:03.048Z,94.65
2017-12-08T19:35:03.534Z,93.89
2017-12-08T19:40:03.149Z,93.51
2017-12-08T19:45:03.664Z,93.32
2017-12-08T19:50:03.129Z,93.23
2017-12-08T19:55:03.636Z,93.13
2017-12-08T20:00:03.113Z,93.13
2017-12-08T20:05:03.628Z,92.85
2017-12-08T20:10:03.086Z,92.38
2017-12-08T20:15:03.707Z,92
2017-12-08T20:20:03.326Z,92.1
2017-12-08T20:25:02.913Z,92.29
2017-12-08T20:30:03.561Z,92.1
2017-12-08T20:35:03.155Z,92.19
2017-12-08T20:40:03.763Z,91.72
2017-12-08T20:45:03.652Z,91.43
2017-12-08T20:50:03.097Z,91.34
2017-12-08T20:55:03.645Z,91.53
2017-12-08T21:00:03.130Z,91.43
2017-12-08T21:05:03.654Z,90.96
2017-12-08T21:10:03.288Z,90.96
2017-12-08T21:15:02.804Z,90.77
2017-12-08T21:20:03.528Z,90.58
2017-12-08T21:25:02.975Z,90.39
2017-12-08T21:30:03.381Z,90.11
2017-12-08T21:35:02.950Z,89.92
2017-12-08T21:40:03.552Z,89.64
2017-12-08T21:45:02.992Z,89.45
2017-12-08T21:50:03.580Z,89.64
2017-12-08T21:55:02.963Z,89.64
2017-12-08T22:00:03.518Z,89.54
2017-12-08T22:05:03.202Z,89.73
2017-12-08T22:10:02.813Z,89.83
2017-12-08T22:15:03.281Z,90.01
2017-12-08T22:20:02.920Z,90.2
2017-12-08T22:25:03.494Z,90.11
2017-12-08T22:30:03.070Z,90.49
2017-12-08T22:35:03.733Z,90.68
2017-12-08T22:40:03.180Z,90.86
2017-12-08T22:45:02.770Z,90.86
2017-12-08T22:50:03.414Z,90.96
2017-12-08T22:55:02.825Z,90.77
2017-12-08T23:00:03.447Z,90.77
2017-12-08T23:05:02.862Z,90.39
2017-12-08T23:10:03.503Z,90.11
2017-12-08T23:15:03.106Z,90.01
2017-12-08T23:20:03.576Z,90.01
2017-12-08T23:25:03.012Z,90.3
2017-12-08T23:30:03.484Z,90.39
2017-12-08T23:35:03.009Z,90.58
2017-12-08T23:40:03.627Z,90.58
2017-12-08T23:45:03.143Z,90.39
2017-12-08T23:50:02.790Z,90.58
2017-12-08T23:55:03.301Z,90.58
